Baird, Texas
Current Conditions -  °F | °C
As of 9:52 AM on Tuesday 21 Oct 2014 (Local Time) from KABI Reporting Station
Clear Clear  
Wind Chill: 68°   Ceiling: Unl
Heat Index: 68°   Visibility: 10mi
Dew Point: 57°   Wind: 3mph
Humidity: 68%   Direction: 240°WSW
Pressure: 30.13"   Gusts: NA
Location:  32.39°N, 99.39°W
Report Text: KABI 211452Z 24003KT 10SM CLR 20/14 A3013 RMK AO2 SLP185 T02000139 53013
Loading
Personal Weather Stations






























Interactive Weather Map New forecast layout! Learn more

10-Day Weather Forecast

Advertisements
Track Severe Weather on mobile